Time;durP1;ratioP1;P1;durP2;ratioP2;P2;SDS_P1;SDS_P2;PMS_P1;PMS_P2;Temp;Humidity;BMP_temperature;BMP_pressure;BME280_temperature;BME280_humidity;BME280_pressure;Samples;Min_cycle;Max_cycle;Signal;HPM_P1;HPM_P2
2023/01/19 00:02:27;;;;;;;;;6.40;4.00;;;;;1.89;78.11;98443.03;5114782;28;8824;-60
2023/01/19 00:04:55;;;;;;;;;4.80;4.40;;;;;1.92;78.12;98442.81;5114610;28;8820;-60
2023/01/19 00:07:24;;;;;;;;;4.00;4.00;;;;;1.91;77.52;98446.38;5117358;28;8907;-58
2023/01/19 00:09:52;;;;;;;;;6.20;5.20;;;;;1.91;78.00;98441.94;5118454;28;8854;-60
2023/01/19 00:12:20;;;;;;;;;6.00;6.00;;;;;1.91;77.86;98443.75;5118881;28;8835;-59
2023/01/19 00:14:47;;;;;;;;;4.80;4.80;;;;;1.87;78.20;98442.28;5118345;28;8912;-59
2023/01/19 00:17:15;;;;;;;;;6.40;5.60;;;;;1.84;77.85;98440.72;5118731;28;8836;-60
2023/01/19 00:19:43;;;;;;;;;10.80;10.00;;;;;1.84;77.81;98435.47;5119006;28;8839;-60
2023/01/19 00:22:10;;;;;;;;;9.80;8.80;;;;;1.85;78.21;98437.16;5118939;28;8870;-59
2023/01/19 00:24:38;;;;;;;;;8.40;7.40;;;;;1.87;78.30;98440.50;5118981;28;8808;-58
2023/01/19 00:27:06;;;;;;;;;9.00;7.00;;;;;1.90;78.31;98440.28;5119139;28;8820;-59
2023/01/19 00:29:34;;;;;;;;;3.60;3.20;;;;;1.89;77.76;98424.66;5118250;28;8808;-59
2023/01/19 00:32:02;;;;;;;;;9.00;7.00;;;;;1.89;78.11;98430.72;5118691;28;8823;-59
2023/01/19 00:34:35;;;;;;;;;6.40;6.40;;;;;1.89;78.36;98422.84;5118177;28;9540;-59
2023/01/19 00:37:03;;;;;;;;;6.60;5.80;;;;;1.89;78.23;98422.84;5118375;28;8828;-60
2023/01/19 00:39:31;;;;;;;;;7.80;6.60;;;;;1.87;78.68;98430.00;5118548;28;8824;-60
2023/01/19 00:44:44;;;;;;;;;7.00;7.00;;;;;1.83;78.18;98420.66;5118965;28;8832;-60
2023/01/19 00:47:12;;;;;;;;;5.80;5.80;;;;;1.79;78.91;98427.06;5118656;28;8816;-59
2023/01/19 00:49:40;;;;;;;;;8.20;7.00;;;;;1.76;78.49;98434.31;5118741;28;8839;-59
2023/01/19 00:52:08;;;;;;;;;6.80;6.00;;;;;1.77;78.73;98443.84;5118708;28;8978;-59
2023/01/19 00:54:35;;;;;;;;;3.40;3.00;;;;;1.80;78.52;98433.13;5117664;28;8839;-59
2023/01/19 00:57:03;;;;;;;;;7.40;6.60;;;;;1.84;78.13;98437.25;5100730;28;8893;-60
2023/01/19 00:59:31;;;;;;;;;4.80;4.60;;;;;1.91;78.01;98449.00;5117726;28;8840;-60
2023/01/19 01:01:59;;;;;;;;;2.20;2.20;;;;;1.98;78.50;98443.22;5117833;28;8835;-60
2023/01/19 01:04:27;;;;;;;;;10.40;8.60;;;;;2.03;78.44;98435.88;5118112;28;8905;-60
2023/01/19 01:06:55;;;;;;;;;3.60;3.40;;;;;2.10;78.54;98442.38;5117639;28;8847;-59
2023/01/19 01:09:23;;;;;;;;;8.20;8.20;;;;;2.15;77.78;98444.66;5117700;28;8812;-59
2023/01/19 01:11:51;;;;;;;;;8.60;6.80;;;;;2.19;78.05;98440.91;5117820;28;8842;-60
2023/01/19 01:14:19;;;;;;;;;7.80;7.00;;;;;2.22;78.02;98432.78;5117251;28;8816;-59
2023/01/19 01:16:46;;;;;;;;;8.00;8.00;;;;;2.21;78.15;98436.38;5117874;28;8878;-60
2023/01/19 01:19:14;;;;;;;;;3.00;2.20;;;;;2.18;78.27;98445.28;5116942;28;8846;-58
2023/01/19 01:21:42;;;;;;;;;5.60;5.00;;;;;2.18;78.32;98434.78;5117636;28;8852;-60
2023/01/19 01:24:10;;;;;;;;;7.80;6.60;;;;;2.15;77.89;98445.53;5118270;28;8851;-59
2023/01/19 01:26:38;;;;;;;;;6.80;6.60;;;;;2.13;78.38;98442.13;5117414;28;8844;-58
2023/01/19 01:29:07;;;;;;;;;3.00;3.00;;;;;2.10;78.29;98442.38;5116973;28;8854;-60
2023/01/19 01:31:34;;;;;;;;;6.80;6.60;;;;;2.05;78.70;98447.09;5117776;28;8940;-60
2023/01/19 01:34:03;;;;;;;;;3.00;1.00;;;;;2.00;78.69;98443.97;5118183;28;9497;-57
2023/01/19 01:36:32;;;;;;;;;3.00;3.00;;;;;1.97;78.56;98448.59;5117906;28;8855;-57
2023/01/19 01:39:00;;;;;;;;;7.20;6.00;;;;;1.98;78.84;98445.84;5116995;28;9013;-60
2023/01/19 01:41:27;;;;;;;;;6.80;6.80;;;;;2.04;78.98;98462.97;5117641;28;8835;-59
2023/01/19 01:43:57;;;;;;;;;9.80;9.40;;;;;2.09;78.69;98469.56;5117591;28;8826;-59
2023/01/19 01:46:25;;;;;;;;;5.60;5.60;;;;;2.18;78.22;98454.94;5117145;28;9509;-59
2023/01/19 01:48:53;;;;;;;;;6.40;6.00;;;;;2.23;78.99;98460.72;5116548;28;8950;-58
2023/01/19 01:51:24;;;;;;;;;9.60;9.00;;;;;2.25;78.54;98462.31;5116923;28;8850;-59
2023/01/19 01:53:51;;;;;;;;;12.00;9.80;;;;;2.27;78.47;98449.06;5116324;28;8823;-61
2023/01/19 01:56:19;;;;;;;;;5.60;5.60;;;;;2.29;78.33;98458.50;5116758;28;8854;-59
2023/01/19 01:58:47;;;;;;;;;7.60;6.60;;;;;2.30;78.52;98449.69;5116764;28;8816;-58
2023/01/19 02:04:00;;;;;;;;;6.80;6.80;;;;;2.30;78.14;98449.69;5117445;28;8832;-58
2023/01/19 02:06:28;;;;;;;;;7.00;5.20;;;;;2.31;78.41;98455.78;5116198;28;8827;-57
2023/01/19 02:14:26;;;;;;;;;2.60;1.80;;;;;2.32;78.57;98458.31;5116267;28;8852;-60
2023/01/19 02:16:54;;;;;;;;;6.60;6.60;;;;;2.33;78.24;98454.72;5116036;28;8887;-57
2023/01/19 02:19:22;;;;;;;;;6.80;5.60;;;;;2.34;78.47;98451.16;5116091;28;8812;-59
2023/01/19 02:21:50;;;;;;;;;6.20;6.00;;;;;2.35;77.86;98452.81;5116148;28;8848;-60
2023/01/19 02:24:18;;;;;;;;;5.60;5.40;;;;;2.37;78.09;98455.34;5115833;28;8832;-60
2023/01/19 02:26:46;;;;;;;;;8.00;7.00;;;;;2.37;78.47;98456.19;5116320;28;8828;-59
2023/01/19 02:29:14;;;;;;;;;6.80;6.20;;;;;2.36;78.29;98457.13;5115719;28;8847;-60
2023/01/19 02:31:42;;;;;;;;;13.00;10.00;;;;;2.37;78.31;98444.84;5116081;28;8835;-58
2023/01/19 02:34:09;;;;;;;;;3.60;3.20;;;;;2.36;78.80;98444.00;5116475;28;8858;-61
2023/01/19 02:36:37;;;;;;;;;6.60;3.00;;;;;2.36;78.22;98443.16;5115966;28;8847;-60
2023/01/19 02:39:06;;;;;;;;;5.60;4.20;;;;;2.36;78.11;98444.00;5116488;28;8855;-60
2023/01/19 02:41:33;;;;;;;;;2.80;2.00;;;;;2.38;78.63;98449.16;5116569;28;8836;-58
2023/01/19 02:44:01;;;;;;;;;3.00;1.00;;;;;2.40;78.57;98436.72;5116645;28;8816;-59
2023/01/19 02:46:29;;;;;;;;;8.60;8.60;;;;;2.42;78.38;98440.13;5116334;28;8832;-59
2023/01/19 02:48:57;;;;;;;;;5.20;5.20;;;;;2.43;78.42;98442.63;5116477;28;8832;-60
2023/01/19 02:51:24;;;;;;;;;9.20;9.00;;;;;2.45;78.05;98443.38;5116710;28;8840;-60
2023/01/19 02:53:52;;;;;;;;;7.00;7.00;;;;;2.46;78.01;98445.03;5116464;28;8880;-60
2023/01/19 02:56:22;;;;;;;;;9.00;9.00;;;;;2.44;77.96;98439.03;5105787;28;8810;-60
2023/01/19 02:58:50;;;;;;;;;6.80;5.20;;;;;2.41;78.42;98428.75;5094399;28;8830;-59
2023/01/19 03:01:18;;;;;;;;;5.20;5.20;;;;;2.39;78.69;98430.66;5095342;28;8807;-58
2023/01/19 03:03:46;;;;;;;;;6.20;6.00;;;;;2.37;77.87;98431.72;5096346;28;8854;-58
2023/01/19 03:06:14;;;;;;;;;4.40;4.40;;;;;2.33;78.78;98431.09;5095953;28;8915;-58
2023/01/19 03:08:42;;;;;;;;;8.20;6.80;;;;;2.34;78.74;98434.56;5096244;28;8859;-59
2023/01/19 03:11:09;;;;;;;;;3.00;3.00;;;;;2.32;78.27;98434.66;5096136;28;8960;-59
2023/01/19 03:13:38;;;;;;;;;9.40;8.60;;;;;2.31;78.73;98433.00;5095388;28;8798;-60
2023/01/19 03:16:06;;;;;;;;;6.00;5.40;;;;;2.31;78.82;98430.38;5096034;28;8825;-59
2023/01/19 03:18:33;;;;;;;;;4.00;4.00;;;;;2.33;78.31;98425.84;5095729;28;8841;-57
2023/01/19 03:21:01;;;;;;;;;6.00;4.00;;;;;2.36;78.78;98427.41;5095364;28;8862;-59
2023/01/19 03:23:29;;;;;;;;;9.20;9.20;;;;;2.38;77.82;98436.88;5095590;28;8830;-59
2023/01/19 03:25:57;;;;;;;;;2.20;1.00;;;;;2.41;78.85;98426.13;5095712;28;8861;-60
2023/01/19 03:28:25;;;;;;;;;6.20;4.40;;;;;2.44;78.43;98438.22;5096030;28;8833;-59
2023/01/19 03:30:53;;;;;;;;;3.80;3.40;;;;;2.44;78.11;98425.09;5095975;28;8853;-59
2023/01/19 03:33:22;;;;;;;;;6.20;4.80;;;;;2.47;78.52;98424.84;5095326;28;8806;-58
2023/01/19 03:35:50;;;;;;;;;3.20;3.00;;;;;2.49;77.84;98420.34;5096169;28;8826;-59
2023/01/19 03:38:17;;;;;;;;;5.80;5.20;;;;;2.50;78.38;98417.59;5095871;28;8858;-60
2023/01/19 03:40:46;;;;;;;;;4.40;4.00;;;;;2.51;78.41;98421.06;5095319;28;8826;-59
2023/01/19 03:43:14;;;;;;;;;5.60;4.80;;;;;2.51;77.97;98411.38;5095723;28;8861;-57
2023/01/19 03:45:43;;;;;;;;;4.80;3.40;;;;;2.53;78.46;98421.78;5096513;28;8821;-60
2023/01/19 03:48:10;;;;;;;;;2.20;2.20;;;;;2.52;78.36;98418.34;5097019;28;9479;-60
2023/01/19 03:50:38;;;;;;;;;9.00;8.20;;;;;2.52;78.00;98418.34;5115822;28;8852;-60
2023/01/19 03:53:06;;;;;;;;;9.00;7.00;;;;;2.50;77.70;98422.84;5116202;28;8824;-60
2023/01/19 03:55:33;;;;;;;;;4.60;2.40;;;;;2.50;78.18;98414.97;5116117;28;8848;-60
2023/01/19 03:58:01;;;;;;;;;3.40;2.40;;;;;2.48;78.14;98419.50;5115847;28;8832;-59
2023/01/19 04:00:29;;;;;;;;;6.40;4.80;;;;;2.48;78.24;98414.25;5115625;28;8915;-57
2023/01/19 04:02:57;;;;;;;;;4.00;4.00;;;;;2.49;78.39;98417.72;5115777;28;8824;-58
2023/01/19 04:05:25;;;;;;;;;3.60;3.60;;;;;2.48;78.06;98416.88;5116013;28;9505;-59
2023/01/19 04:07:53;;;;;;;;;7.80;7.00;;;;;2.48;78.36;98422.13;5100761;28;9471;-58
2023/01/19 04:10:21;;;;;;;;;3.60;3.60;;;;;2.52;78.04;98415.72;5095661;28;8833;-60
2023/01/19 04:12:49;;;;;;;;;4.80;4.20;;;;;2.55;77.91;98409.38;5095587;28;8822;-59
2023/01/19 04:15:17;;;;;;;;;7.40;6.00;;;;;2.56;78.21;98409.28;5095467;28;8818;-60
2023/01/19 04:17:45;;;;;;;;;6.80;5.80;;;;;2.58;77.78;98417.88;5095378;28;8936;-60
2023/01/19 04:20:12;;;;;;;;;8.20;7.00;;;;;2.58;78.38;98406.56;5113742;28;8831;-60
2023/01/19 04:22:41;;;;;;;;;4.40;4.40;;;;;2.57;77.97;98416.22;5116064;28;9493;-58
2023/01/19 04:25:09;;;;;;;;;7.00;6.60;;;;;2.59;78.15;98418.72;5115760;28;8828;-60
2023/01/19 04:27:36;;;;;;;;;1.00;0.20;;;;;2.58;78.20;98412.63;5104548;28;8856;-59
2023/01/19 04:30:06;;;;;;;;;3.60;3.60;;;;;2.62;78.17;98408.00;5095591;28;8834;-60
2023/01/19 04:32:33;;;;;;;;;2.40;1.20;;;;;2.64;78.18;98403.50;5095713;28;8824;-59
2023/01/19 04:35:01;;;;;;;;;2.60;2.60;;;;;2.67;77.99;98404.09;5095491;28;8853;-57
2023/01/19 04:37:29;;;;;;;;;5.20;3.00;;;;;2.69;78.10;98404.81;5094455;28;8862;-58
2023/01/19 04:39:57;;;;;;;;;4.20;4.20;;;;;2.71;77.60;98396.81;5093895;28;8838;-59
2023/01/19 04:42:26;;;;;;;;;5.20;5.20;;;;;2.72;77.69;98403.78;5094269;28;8834;-60
2023/01/19 04:44:54;;;;;;;;;3.00;2.60;;;;;2.74;77.98;98407.13;5094224;28;8821;-57
2023/01/19 04:47:22;;;;;;;;;3.00;3.00;;;;;2.73;77.80;98408.88;5094149;28;8834;-59
2023/01/19 04:49:49;;;;;;;;;4.00;4.00;;;;;2.75;77.84;98403.53;5097078;28;8837;-60
2023/01/19 04:52:17;;;;;;;;;1.20;0.80;;;;;2.76;77.67;98408.69;5095246;28;8834;-59
2023/01/19 04:54:44;;;;;;;;;4.00;3.80;;;;;2.78;77.61;98414.66;5098555;28;8826;-58
2023/01/19 04:57:12;;;;;;;;;4.00;3.00;;;;;2.80;77.24;98412.75;5099023;28;9569;-60
2023/01/19 04:59:40;;;;;;;;;1.00;1.00;;;;;2.79;77.46;98407.63;5098438;28;8830;-57
2023/01/19 05:02:08;;;;;;;;;3.80;3.80;;;;;2.79;77.38;98410.25;5097957;28;8841;-59
2023/01/19 05:04:36;;;;;;;;;3.80;3.80;;;;;2.78;77.45;98393.63;5098186;28;8814;-59
2023/01/19 05:07:03;;;;;;;;;3.60;2.60;;;;;2.79;77.34;98399.75;5098525;28;8826;-60
2023/01/19 05:09:31;;;;;;;;;6.00;3.80;;;;;2.78;77.64;98391.00;5098221;28;8835;-57
2023/01/19 05:11:59;;;;;;;;;1.00;1.00;;;;;2.77;77.60;98407.72;5098436;28;8818;-57
2023/01/19 05:14:27;;;;;;;;;2.60;2.60;;;;;2.76;77.52;98403.44;5098219;28;8849;-59
2023/01/19 05:16:55;;;;;;;;;3.00;1.00;;;;;2.72;77.43;98411.66;5097763;28;8933;-58
2023/01/19 05:19:23;;;;;;;;;3.20;3.20;;;;;2.61;77.80;98416.81;5108782;28;8808;-57
2023/01/19 05:21:50;;;;;;;;;4.00;3.40;;;;;2.46;78.26;98413.53;5118221;28;9489;-57
2023/01/19 05:24:19;;;;;;;;;6.60;6.60;;;;;2.31;78.88;98422.50;5118468;28;8840;-57
2023/01/19 05:26:46;;;;;;;;;6.20;4.00;;;;;2.18;78.77;98418.19;5118010;28;8831;-60
2023/01/19 05:29:14;;;;;;;;;3.60;3.00;;;;;2.06;79.42;98416.44;5117753;28;8815;-58
2023/01/19 05:31:42;;;;;;;;;4.00;4.00;;;;;1.96;79.83;98423.28;5117305;28;8839;-58
2023/01/19 05:34:09;;;;;;;;;7.00;6.00;;;;;1.88;80.04;98423.81;5116773;28;8832;-59
2023/01/19 05:36:38;;;;;;;;;3.80;3.80;;;;;1.83;80.37;98419.81;5116549;28;8839;-60
2023/01/19 05:39:05;;;;;;;;;7.80;6.60;;;;;1.78;80.16;98425.41;5116393;28;8832;-60
2023/01/19 05:41:33;;;;;;;;;1.80;1.80;;;;;1.76;80.68;98422.00;5076730;28;8828;-60
2023/01/19 05:44:01;;;;;;;;;6.20;4.20;;;;;1.73;81.11;98431.88;5076550;28;8840;-57
2023/01/19 05:46:29;;;;;;;;;4.40;3.80;;;;;1.68;81.79;98424.31;5091422;28;8861;-57
2023/01/19 05:48:57;;;;;;;;;4.00;2.20;;;;;1.66;81.72;98425.41;5105357;28;8936;-59
2023/01/19 05:51:24;;;;;;;;;6.60;3.40;;;;;1.60;81.65;98421.38;5118475;28;8847;-59
2023/01/19 05:53:52;;;;;;;;;3.60;2.60;;;;;1.57;81.90;98421.59;5118232;28;8849;-59
2023/01/19 05:56:20;;;;;;;;;4.00;3.40;;;;;1.53;81.85;98420.13;5117424;28;8844;-59
2023/01/19 05:58:48;;;;;;;;;6.80;6.00;;;;;1.49;81.97;98429.16;5117003;28;8824;-59
2023/01/19 06:01:16;;;;;;;;;5.20;5.20;;;;;1.47;82.70;98428.44;5116893;28;8828;-57
2023/01/19 06:03:44;;;;;;;;;3.00;3.00;;;;;1.47;82.69;98428.44;5116817;28;8912;-56
2023/01/19 06:06:13;;;;;;;;;4.40;3.60;;;;;1.47;82.83;98430.19;5117480;28;8842;-58
2023/01/19 06:08:41;;;;;;;;;4.80;3.80;;;;;1.47;83.21;98438.06;5115835;28;8823;-59
2023/01/19 06:11:09;;;;;;;;;2.20;1.00;;;;;1.47;83.04;98425.81;5115508;28;8831;-58
2023/01/19 06:13:38;;;;;;;;;1.40;1.00;;;;;1.48;83.07;98424.00;5116264;28;8938;-59
2023/01/19 06:16:08;;;;;;;;;2.20;2.20;;;;;1.47;82.77;98433.66;5114644;28;8844;-58
2023/01/19 06:18:36;;;;;;;;;1.00;1.00;;;;;1.49;82.90;98438.78;5114684;28;8824;-58
2023/01/19 06:21:04;;;;;;;;;3.60;3.60;;;;;1.48;83.12;98439.75;5115314;28;8843;-58
2023/01/19 06:23:31;;;;;;;;;3.40;3.40;;;;;1.48;83.28;98439.75;5115416;28;9099;-58
2023/01/19 06:25:59;;;;;;;;;3.00;1.80;;;;;1.48;82.92;98448.47;5115224;28;8823;-59
2023/01/19 06:28:27;;;;;;;;;4.00;4.00;;;;;1.47;82.97;98454.66;5115022;28;8916;-59
2023/01/19 06:30:55;;;;;;;;;3.20;3.00;;;;;1.46;83.12;98466.06;5113646;28;9533;-59
2023/01/19 06:33:23;;;;;;;;;3.20;3.20;;;;;1.44;83.29;98457.47;5112655;28;8823;-57
2023/01/19 06:35:50;;;;;;;;;0.80;0.80;;;;;1.42;83.47;98468.97;5112852;28;8835;-58
2023/01/19 06:38:18;;;;;;;;;1.80;1.00;;;;;1.40;83.38;98469.09;5112545;28;8878;-58
2023/01/19 06:40:46;;;;;;;;;4.00;3.40;;;;;1.38;83.63;98465.72;5113630;28;8831;-58
2023/01/19 06:43:14;;;;;;;;;2.20;1.00;;;;;1.36;83.82;98465.00;5113729;28;8847;-58
2023/01/19 06:45:42;;;;;;;;;3.20;3.20;;;;;1.36;83.44;98467.63;5114406;28;8832;-57
2023/01/19 06:48:12;;;;;;;;;0.40;0.40;;;;;1.35;83.86;98470.34;5112723;28;8869;-57
2023/01/19 06:50:40;;;;;;;;;1.00;1.00;;;;;1.34;83.48;98471.28;5112991;28;8902;-58
2023/01/19 06:53:08;;;;;;;;;1.00;1.00;;;;;1.35;83.48;98479.06;5112779;28;8834;-57
2023/01/19 06:55:36;;;;;;;;;0.00;0.00;;;;;1.35;83.73;98475.56;5113000;28;8994;-57
2023/01/19 06:58:04;;;;;;;;;1.00;1.00;;;;;1.35;84.17;98468.56;5111955;28;8831;-57
2023/01/19 07:00:31;;;;;;;;;1.00;1.00;;;;;1.35;84.20;98468.56;5111512;28;8879;-58
2023/01/19 07:03:01;;;;;;;;;0.80;0.80;;;;;1.35;84.07;98472.94;5112709;28;8848;-58
2023/01/19 07:05:29;;;;;;;;;1.00;1.00;;;;;1.35;84.30;98500.03;5112823;28;8836;-57
2023/01/19 07:07:58;;;;;;;;;0.40;0.40;;;;;1.35;84.46;98484.28;5112985;28;9518;-58
2023/01/19 07:10:26;;;;;;;;;1.00;1.00;;;;;1.35;84.57;98492.16;5112126;28;8838;-57
2023/01/19 07:13:14;;;;;;;;;1.00;1.00;;;;;1.35;84.66;98500.03;5112644;28;8918;-57
2023/01/19 07:15:43;;;;;;;;;0.00;0.00;;;;;1.36;84.53;98493.84;5111378;28;8812;-58
2023/01/19 07:18:11;;;;;;;;;0.00;0.00;;;;;1.37;84.59;98492.06;5111716;28;9497;-58
2023/01/19 07:20:39;;;;;;;;;0.80;0.80;;;;;1.36;84.38;98496.47;5111541;28;8852;-55
2023/01/19 07:23:07;;;;;;;;;0.00;0.00;;;;;1.38;84.31;98502.44;5111853;28;8854;-58
2023/01/19 07:25:35;;;;;;;;;0.00;0.00;;;;;1.37;84.33;98513.88;5110220;28;8832;-58
2023/01/19 07:28:03;;;;;;;;;0.00;0.00;;;;;1.40;84.36;98515.44;5110293;28;8966;-57
2023/01/19 07:30:31;;;;;;;;;0.00;0.00;;;;;1.42;84.81;98521.41;5109567;28;8835;-58
2023/01/19 07:32:59;;;;;;;;;0.60;0.20;;;;;1.44;84.03;98527.44;5111276;28;8836;-57
2023/01/19 07:35:28;;;;;;;;;1.00;0.40;;;;;1.44;84.64;98527.44;5111618;28;8827;-58
2023/01/19 07:37:56;;;;;;;;;0.20;0.00;;;;;1.45;84.01;98526.50;5111865;28;8859;-58
2023/01/19 07:40:24;;;;;;;;;1.00;1.00;;;;;1.45;84.09;98543.03;5112026;28;8832;-58
2023/01/19 07:42:52;;;;;;;;;0.00;0.00;;;;;1.46;84.94;98544.72;5112354;28;8893;-59
2023/01/19 07:45:21;;;;;;;;;1.00;1.00;;;;;1.47;84.82;98540.31;5112603;28;8836;-58
2023/01/19 07:47:49;;;;;;;;;0.00;0.00;;;;;1.47;84.38;98551.66;5112672;28;9543;-58
2023/01/19 07:50:20;;;;;;;;;0.60;0.00;;;;;1.49;84.34;98552.41;5111321;28;8900;-56
2023/01/19 07:52:52;;;;;;;;;0.00;0.00;;;;;1.49;84.89;98547.16;5111817;28;8835;-59
2023/01/19 07:55:20;;;;;;;;;0.00;0.00;;;;;1.52;84.18;98570.53;5111908;28;8820;-59
2023/01/19 07:57:48;;;;;;;;;0.00;0.00;;;;;1.52;84.53;98560.06;5111564;28;8916;-59
2023/01/19 08:00:18;;;;;;;;;0.00;0.00;;;;;1.53;84.18;98561.72;5112051;28;8978;-59
2023/01/19 08:02:48;;;;;;;;;0.00;0.00;;;;;1.55;84.71;98575.63;5109139;28;9497;-58
2023/01/19 08:05:16;;;;;;;;;0.00;0.00;;;;;1.55;84.64;98586.09;5109916;28;8900;-58
2023/01/19 08:07:45;;;;;;;;;0.00;0.00;;;;;1.57;84.05;98581.59;5109989;28;9252;-59
2023/01/19 08:10:13;;;;;;;;;0.40;0.40;;;;;1.60;84.63;98578.75;5110992;28;8828;-58
2023/01/19 08:12:41;;;;;;;;;0.00;0.00;;;;;1.63;84.29;98573.31;5110843;28;8858;-58
2023/01/19 08:15:09;;;;;;;;;0.60;0.60;;;;;1.65;84.59;98576.69;5110580;28;8823;-58
2023/01/19 08:17:37;;;;;;;;;0.00;0.00;;;;;1.67;84.80;98580.03;5111153;28;8864;-59
2023/01/19 08:20:05;;;;;;;;;0.20;0.20;;;;;1.68;84.32;98594.81;5111523;28;8971;-59
2023/01/19 08:22:33;;;;;;;;;0.00;0.00;;;;;1.70;84.59;98598.22;5111633;28;8843;-58
2023/01/19 08:25:01;;;;;;;;;0.00;0.00;;;;;1.72;84.41;98596.31;5112209;28;8916;-59
2023/01/19 08:27:30;;;;;;;;;0.40;0.40;;;;;1.73;84.39;98600.63;5112917;28;8844;-58
2023/01/19 08:29:58;;;;;;;;;1.00;1.00;;;;;1.74;84.36;98611.97;5116586;28;8848;-58
2023/01/19 08:32:26;;;;;;;;;0.60;0.20;;;;;1.73;84.01;98612.88;5116000;28;8843;-59
2023/01/19 08:34:54;;;;;;;;;1.00;1.00;;;;;1.73;83.67;98618.13;5114142;28;8823;-59
2023/01/19 08:37:23;;;;;;;;;1.00;1.00;;;;;1.73;84.41;98619.00;5112755;28;8820;-59
2023/01/19 08:39:52;;;;;;;;;1.40;1.40;;;;;1.74;83.82;98614.59;5112346;28;8838;-59
2023/01/19 08:42:21;;;;;;;;;1.00;1.00;;;;;1.76;84.70;98620.56;5113412;28;8835;-59
2023/01/19 08:44:48;;;;;;;;;3.00;1.80;;;;;1.77;83.79;98628.34;5113666;28;8889;-58
2023/01/19 08:47:25;;;;;;;;;1.00;0.60;;;;;1.80;84.20;98627.28;5113982;28;8844;-59
2023/01/19 08:49:53;;;;;;;;;1.00;1.00;;;;;1.82;83.97;98628.88;5114936;28;8820;-59
2023/01/19 08:52:23;;;;;;;;;2.20;2.20;;;;;1.83;83.83;98635.81;5116686;28;8862;-59
2023/01/19 08:54:51;;;;;;;;;1.40;1.00;;;;;1.86;84.46;98637.38;5116381;28;8904;-58
2023/01/19 08:57:19;;;;;;;;;3.00;3.00;;;;;1.89;84.02;98637.22;5115950;28;8843;-58
2023/01/19 08:59:47;;;;;;;;;2.60;2.60;;;;;1.91;84.05;98638.75;5116575;28;8831;-59
2023/01/19 09:02:15;;;;;;;;;3.80;3.20;;;;;1.95;83.73;98645.50;5116264;28;8823;-59
2023/01/19 09:04:43;;;;;;;;;3.40;3.40;;;;;1.98;83.90;98647.91;5116558;28;8878;-59
2023/01/19 09:07:11;;;;;;;;;4.80;3.00;;;;;2.01;84.26;98646.88;5116688;28;9529;-59
2023/01/19 09:09:42;;;;;;;;;1.00;1.00;;;;;2.04;84.02;98637.00;5114980;28;8819;-59
2023/01/19 09:12:10;;;;;;;;;2.20;2.20;;;;;2.07;83.80;98639.47;5114977;28;8831;-59
2023/01/19 09:14:38;;;;;;;;;4.80;4.00;;;;;2.13;83.89;98644.28;5115175;28;8843;-59
2023/01/19 09:17:06;;;;;;;;;2.20;2.20;;;;;2.18;83.91;98649.22;5114809;28;8916;-59
2023/01/19 09:19:34;;;;;;;;;1.80;1.80;;;;;2.21;83.30;98662.97;5115329;28;8808;-59
2023/01/19 09:22:02;;;;;;;;;5.60;5.40;;;;;2.22;83.31;98667.31;5115894;28;8925;-59
2023/01/19 09:24:30;;;;;;;;;3.00;3.00;;;;;2.26;83.43;98663.53;5115978;28;8978;-59
2023/01/19 09:26:59;;;;;;;;;3.20;3.00;;;;;2.28;83.39;98666.88;5115958;28;8965;-59
2023/01/19 09:29:27;;;;;;;;;3.80;3.20;;;;;2.29;83.27;98676.44;5115783;28;8819;-60
2023/01/19 09:31:56;;;;;;;;;6.60;4.00;;;;;2.31;82.88;98671.09;5114500;28;8844;-60
2023/01/19 09:34:24;;;;;;;;;4.80;4.80;;;;;2.32;82.85;98686.75;5114726;28;8859;-58
2023/01/19 09:36:53;;;;;;;;;4.80;4.00;;;;;2.36;82.96;98690.84;5112644;28;8860;-59
2023/01/19 09:39:21;;;;;;;;;2.60;1.00;;;;;2.39;83.29;98684.56;5111940;28;8835;-60
2023/01/19 09:41:49;;;;;;;;;11.20;8.60;;;;;2.40;83.20;98692.34;5111791;28;8824;-60
2023/01/19 09:44:17;;;;;;;;;3.80;3.40;;;;;2.42;83.53;98706.19;5112384;28;8843;-59
2023/01/19 09:46:45;;;;;;;;;8.20;7.60;;;;;2.44;82.78;98706.94;5112411;28;8839;-59
2023/01/19 09:49:13;;;;;;;;;3.40;3.40;;;;;2.48;82.97;98705.78;5112547;28;8897;-59
2023/01/19 09:51:41;;;;;;;;;3.40;3.00;;;;;2.52;83.13;98707.28;5114248;28;8836;-60
2023/01/19 09:54:09;;;;;;;;;6.40;6.00;;;;;2.53;82.64;98713.38;5114822;28;8948;-60
2023/01/19 09:56:37;;;;;;;;;6.00;6.00;;;;;2.55;82.98;98719.34;5114963;28;8835;-59
2023/01/19 09:59:06;;;;;;;;;0.60;0.40;;;;;2.58;82.55;98714.72;5114250;28;8823;-60
2023/01/19 10:01:34;;;;;;;;;6.00;4.40;;;;;2.63;82.91;98733.66;5113712;28;8828;-60
2023/01/19 10:04:02;;;;;;;;;6.00;4.00;;;;;2.67;82.77;98729.91;5114020;28;8828;-59
2023/01/19 10:06:30;;;;;;;;;6.00;6.00;;;;;2.67;82.37;98737.78;5114207;28;8839;-59
2023/01/19 10:08:58;;;;;;;;;6.80;6.80;;;;;2.69;82.60;98735.88;5114018;28;8820;-60
2023/01/19 10:11:26;;;;;;;;;9.60;8.60;;;;;2.70;82.81;98737.56;5112448;28;8843;-60
2023/01/19 10:14:09;;;;;;;;;8.20;7.00;;;;;2.73;82.36;98747.03;5113342;28;8823;-60
2023/01/19 10:16:37;;;;;;;;;5.60;5.60;;;;;2.73;82.10;98739.97;5113302;28;8820;-60
2023/01/19 10:19:06;;;;;;;;;9.40;8.60;;;;;2.73;82.32;98753.13;5112350;28;8835;-59
2023/01/19 10:21:34;;;;;;;;;6.60;5.60;;;;;2.72;82.86;98746.19;5112416;28;8855;-59
2023/01/19 10:24:02;;;;;;;;;8.80;8.20;;;;;2.72;82.49;98751.44;5112412;28;8974;-59
2023/01/19 10:26:33;;;;;;;;;7.00;6.60;;;;;2.74;82.40;98751.34;5112285;28;9258;-59
2023/01/19 10:29:01;;;;;;;;;6.80;6.00;;;;;2.75;82.07;98746.00;5112669;28;8835;-58
2023/01/19 10:31:29;;;;;;;;;5.20;5.20;;;;;2.80;82.61;98743.88;5112708;28;8879;-59
2023/01/19 10:33:58;;;;;;;;;9.20;8.80;;;;;2.88;82.37;98751.25;5113685;28;8840;-59
2023/01/19 10:36:26;;;;;;;;;5.60;5.60;;;;;2.94;81.99;98748.22;5114243;28;8879;-59
2023/01/19 10:38:54;;;;;;;;;8.00;6.80;;;;;3.03;81.85;98748.41;5112933;28;8820;-59
2023/01/19 10:41:23;;;;;;;;;5.60;5.20;;;;;3.10;82.06;98762.81;5111769;28;8839;-60
2023/01/19 10:43:51;;;;;;;;;12.40;9.40;;;;;3.14;82.16;98759.06;5112240;28;8848;-60
2023/01/19 10:46:18;;;;;;;;;8.40;7.60;;;;;3.17;81.73;98753.56;5111262;28;8847;-59
2023/01/19 10:48:46;;;;;;;;;11.20;10.80;;;;;3.16;82.20;98759.78;5110415;28;8971;-60
2023/01/19 10:51:14;;;;;;;;;5.80;5.20;;;;;3.12;81.73;98760.09;5111065;28;8859;-60
2023/01/19 10:53:43;;;;;;;;;10.40;9.00;;;;;3.07;81.90;98757.78;5111734;28;8812;-59
2023/01/19 10:56:11;;;;;;;;;8.60;7.60;;;;;3.04;82.01;98768.50;5112359;28;8828;-59
2023/01/19 10:58:40;;;;;;;;;9.20;9.00;;;;;3.01;82.12;98773.13;5112469;28;8850;-58
2023/01/19 11:01:08;;;;;;;;;7.80;7.00;;;;;3.01;82.28;98759.97;5111614;28;8855;-59
2023/01/19 11:03:36;;;;;;;;;9.60;9.40;;;;;2.98;81.90;98765.44;5113086;28;8840;-58
2023/01/19 11:06:04;;;;;;;;;8.20;6.40;;;;;2.97;82.41;98777.78;5112427;28;8831;-60
2023/01/19 11:08:32;;;;;;;;;10.00;8.00;;;;;2.94;82.30;98767.44;5112524;28;9175;-59
2023/01/19 11:11:01;;;;;;;;;12.40;10.40;;;;;2.95;82.53;98770.94;5111635;28;8904;-59
2023/01/19 11:13:29;;;;;;;;;8.20;7.00;;;;;2.93;82.53;98775.44;5112249;28;8844;-58
2023/01/19 11:15:57;;;;;;;;;8.60;6.40;;;;;2.92;82.91;98782.50;5111553;28;8840;-59
2023/01/19 11:18:25;;;;;;;;;6.00;4.00;;;;;2.92;82.26;98774.59;5111082;28;8832;-60
2023/01/19 11:20:53;;;;;;;;;8.60;7.00;;;;;2.90;83.02;98780.91;5111422;28;9177;-59
2023/01/19 11:23:21;;;;;;;;;18.60;13.00;;;;;2.90;82.53;98787.00;5111538;28;8859;-58
2023/01/19 11:25:49;;;;;;;;;9.80;6.80;;;;;2.92;82.60;98782.50;5111434;28;8851;-57
2023/01/19 11:28:18;;;;;;;;;10.00;9.20;;;;;2.99;82.90;98783.75;5110393;28;9101;-59
2023/01/19 11:30:46;;;;;;;;;9.00;9.00;;;;;3.10;82.32;98778.59;5109496;28;8855;-59
2023/01/19 11:33:14;;;;;;;;;13.60;10.80;;;;;3.15;82.05;98783.53;5110443;28;8843;-58
2023/01/19 11:35:42;;;;;;;;;6.00;4.00;;;;;3.13;82.26;98782.81;5109925;28;8971;-59
2023/01/19 11:38:10;;;;;;;;;11.20;9.40;;;;;3.12;82.58;98779.34;5111524;28;8843;-58
2023/01/19 11:40:39;;;;;;;;;7.80;7.80;;;;;3.06;82.26;98781.53;5110368;28;8832;-59
2023/01/19 11:43:07;;;;;;;;;8.60;6.40;;;;;2.93;82.39;98796.47;5110617;28;8863;-59
2023/01/19 11:45:35;;;;;;;;;9.20;9.20;;;;;2.81;82.90;98798.13;5111438;28;8828;-58
2023/01/19 11:48:03;;;;;;;;;6.00;5.60;;;;;2.74;83.17;98794.22;5111758;28;8912;-56
2023/01/19 11:50:31;;;;;;;;;9.20;9.00;;;;;2.72;83.45;98798.75;5110827;28;8878;-58
2023/01/19 11:53:00;;;;;;;;;10.00;9.40;;;;;2.71;83.60;98802.31;5110071;28;8998;-58
2023/01/19 11:55:28;;;;;;;;;15.40;13.20;;;;;2.71;83.62;98806.72;5111609;28;8902;-59
2023/01/19 11:57:56;;;;;;;;;8.60;7.80;;;;;2.75;83.19;98809.06;5110644;28;8848;-59
2023/01/19 12:00:24;;;;;;;;;9.00;7.00;;;;;2.81;83.02;98813.06;5111591;28;8828;-58
2023/01/19 12:02:53;;;;;;;;;11.20;9.40;;;;;2.84;83.01;98808.44;5117743;28;8827;-59
2023/01/19 12:05:21;;;;;;;;;9.60;6.80;;;;;2.87;83.07;98802.16;5118769;28;8856;-59